createdAt,value
2023-01-03T00:00:00.941Z,99758.40
2023-01-03T00:10:09.907Z,99758.78
2023-01-03T00:20:15.933Z,99773.73
2023-01-03T00:30:21.616Z,99783.91
2023-01-03T00:40:27.375Z,99801.36
2023-01-03T00:50:33.001Z,99816.42
2023-01-03T01:00:38.886Z,99822.57
2023-01-03T01:11:01.858Z,99845.13
2023-01-03T01:21:10.231Z,99856.08
2023-01-03T01:31:17.881Z,99883.57
2023-01-03T01:41:37.949Z,99901.30
2023-01-03T01:51:44.219Z,99889.66
2023-01-03T02:01:52.669Z,99892.19
2023-01-03T02:12:17.034Z,99895.52
2023-01-03T02:22:52.253Z,99903.88
2023-01-03T02:33:06.584Z,99910.59
2023-01-03T02:43:17.972Z,99935.77
2023-01-03T02:53:29.138Z,99947.00
2023-01-03T03:03:40.362Z,99953.38
2023-01-03T03:13:52.195Z,99953.45
2023-01-03T03:24:35.793Z,99973.67
2023-01-03T03:34:43.770Z,99983.66
2023-01-03T03:45:04.153Z,100000.98
2023-01-03T03:55:16.377Z,100021.14
2023-01-03T04:05:25.296Z,100035.63
2023-01-03T04:15:31.217Z,100042.98
2023-01-03T04:25:37.005Z,100055.23
2023-01-03T04:35:42.762Z,100076.26
2023-01-03T04:45:50.821Z,100084.80
2023-01-03T04:55:57.819Z,100092.56
2023-01-03T05:06:06.147Z,100100.16
2023-01-03T05:16:14.556Z,100107.56
2023-01-03T05:26:22.859Z,100115.60
2023-01-03T05:36:28.655Z,100118.23
2023-01-03T05:46:34.782Z,100128.08
2023-01-03T05:56:40.601Z,100141.11
2023-01-03T06:06:46.428Z,100150.83
2023-01-03T06:17:15.106Z,100156.79
2023-01-03T06:27:21.076Z,100170.27
2023-01-03T06:37:26.799Z,100185.42
2023-01-03T06:47:50.275Z,100195.09
2023-01-03T06:57:55.935Z,100210.11
2023-01-03T07:08:01.769Z,100223.59
2023-01-03T07:18:07.909Z,100232.73
2023-01-03T07:28:15.248Z,100248.13
2023-01-03T07:38:21.198Z,100255.06
2023-01-03T07:48:27.072Z,100267.05
2023-01-03T07:58:33.477Z,100285.66
2023-01-03T08:08:39.519Z,100302.58
2023-01-03T08:18:46.070Z,100312.52
2023-01-03T08:28:52.701Z,100324.73
2023-01-03T08:39:03.558Z,100330.48
2023-01-03T08:49:10.023Z,100347.40
2023-01-03T08:59:15.911Z,100353.64
2023-01-03T09:09:21.852Z,100365.23
2023-01-03T09:19:27.594Z,100364.29
2023-01-03T09:29:33.454Z,100378.14
2023-01-03T09:39:40.754Z,100380.72
2023-01-03T09:50:18.334Z,100379.13
2023-01-03T10:00:42.656Z,100379.60
2023-01-03T10:11:02.061Z,100394.41
2023-01-03T10:21:14.774Z,100400.80
2023-01-03T10:31:44.357Z,100403.81
2023-01-03T10:41:52.765Z,100396.60
2023-01-03T10:52:02.742Z,100397.17
2023-01-03T11:02:23.469Z,100403.84
2023-01-03T11:12:36.740Z,100405.93
2023-01-03T11:22:47.537Z,100408.75
2023-01-03T11:33:08.944Z,100411.41
2023-01-03T11:43:31.166Z,100412.27
2023-01-03T11:53:40.533Z,100414.88
2023-01-03T12:04:02.783Z,100420.20
2023-01-03T12:14:16.369Z,100417.14
2023-01-03T12:24:33.064Z,100412.95
2023-01-03T12:34:46.350Z,100409.14
2023-01-03T12:45:01.277Z,100407.88
2023-01-03T12:55:19.968Z,100402.05
2023-01-03T13:05:30.818Z,100401.80
2023-01-03T13:15:37.847Z,100399.86
2023-01-03T13:25:44.806Z,100414.48
2023-01-03T13:36:02.440Z,100424.58
2023-01-03T13:46:22.445Z,100422.27
2023-01-03T13:56:31.667Z,100431.52
2023-01-03T14:06:58.348Z,100444.48
2023-01-03T14:17:05.830Z,100457.95
2023-01-03T14:27:17.265Z,100468.73
2023-01-03T14:37:26.550Z,100481.95
2023-01-03T14:47:38.722Z,100489.59
2023-01-03T14:57:45.774Z,100499.36
2023-01-03T15:07:51.548Z,100515.75
2023-01-03T15:18:00.877Z,100528.66
2023-01-03T15:28:25.161Z,100534.70
2023-01-03T15:38:35.597Z,100538.65
2023-01-03T15:48:43.269Z,100537.95
2023-01-03T15:58:50.969Z,100553.08
2023-01-03T16:08:56.960Z,100567.08
2023-01-03T16:19:04.245Z,100575.91
2023-01-03T16:29:10.180Z,100585.60
2023-01-03T16:39:18.382Z,100586.67
2023-01-03T16:49:24.413Z,100586.34
2023-01-03T16:59:30.078Z,100594.05
2023-01-03T17:09:38.137Z,100597.41
2023-01-03T17:20:03.398Z,100604.52
2023-01-03T17:30:14.523Z,100609.51
2023-01-03T17:40:29.250Z,100614.62
2023-01-03T17:50:39.020Z,100621.77
2023-01-03T18:00:44.995Z,100625.83
2023-01-03T18:10:53.449Z,100641.20
2023-01-03T18:21:00.308Z,100646.39
2023-01-03T18:31:07.360Z,100647.61
2023-01-03T18:41:18.981Z,100654.50
2023-01-03T18:51:28.979Z,100659.83
2023-01-03T19:01:36.113Z,100669.63
2023-01-03T19:11:42.645Z,100668.58
2023-01-03T19:21:49.195Z,100663.40
2023-01-03T19:31:55.403Z,100672.11
2023-01-03T19:42:20.026Z,100676.71
2023-01-03T19:52:25.953Z,100675.83
2023-01-03T20:02:40.952Z,100673.03
2023-01-03T20:12:48.029Z,100668.02
2023-01-03T20:23:05.844Z,100673.14
2023-01-03T20:33:12.524Z,100678.23
2023-01-03T20:43:19.714Z,100682.84
2023-01-03T20:53:26.995Z,100681.57
2023-01-03T21:03:32.939Z,100687.48
2023-01-03T21:13:39.088Z,100690.14
2023-01-03T21:23:44.933Z,100695.51
2023-01-03T21:33:51.085Z,100708.19
2023-01-03T21:43:58.733Z,100717.55
2023-01-03T21:54:04.923Z,100718.26
2023-01-03T22:04:17.823Z,100722.42
2023-01-03T22:14:23.698Z,100730.97
2023-01-03T22:24:29.812Z,100734.89
2023-01-03T22:34:35.820Z,100724.55
2023-01-03T22:44:41.943Z,100724.45
2023-01-03T22:54:47.824Z,100723.48
2023-01-03T23:04:53.542Z,100733.64
2023-01-03T23:14:59.736Z,100734.40
2023-01-03T23:25:06.065Z,100711.91
2023-01-03T23:35:12.491Z,100715.02
2023-01-03T23:45:18.596Z,100712.63
2023-01-03T23:55:24.443Z,100703.00
